Time;durP1;ratioP1;P1;durP2;ratioP2;P2;SDS_P1;SDS_P2;PMS_P1;PMS_P2;Temp;Humidity;BMP_temperature;BMP_pressure;BME280_temperature;BME280_humidity;BME280_pressure;Samples;Min_cycle;Max_cycle;Signal;HPM_P1;HPM_P2
2023/10/22 00:00:07;;;;;;;5.30;2.20;;;;;;;;;;5075028;28;20474;-86
2023/10/22 00:02:33;;;;;;;7.00;2.77;;;;;;;;;;5074685;28;20477;-86
2023/10/22 00:05:00;;;;;;;5.70;1.97;;;;;;;;;;5074082;28;20449;-86
2023/10/22 00:07:26;;;;;;;4.97;2.60;;;;;;;;;;5074727;28;20431;-85
2023/10/22 00:09:54;;;;;;;5.77;2.50;;;;;;;;;;5074885;28;20463;-85
2023/10/22 00:12:21;;;;;;;2.93;2.17;;;;;;;;;;5074376;28;20418;-85
2023/10/22 00:14:49;;;;;;;6.90;2.60;;;;;;;;;;5074585;28;20546;-85
2023/10/22 00:17:16;;;;;;;3.67;1.83;;;;;;;;;;5075180;28;20426;-86
2023/10/22 00:19:42;;;;;;;5.67;2.60;;;;;;;;;;5075164;28;20865;-85
2023/10/22 00:22:12;;;;;;;4.63;2.77;;;;;;;;;;5075200;28;20442;-86
2023/10/22 00:24:38;;;;;;;5.40;2.67;;;;;;;;;;5074849;28;21037;-85
2023/10/22 00:27:05;;;;;;;6.03;2.90;;;;;;;;;;5073980;28;20410;-85
2023/10/22 00:29:31;;;;;;;2.27;1.80;;;;;;;;;;5073719;28;20479;-85
2023/10/22 00:31:59;;;;;;;6.00;2.20;;;;;;;;;;5075888;28;20417;-85
2023/10/22 00:34:26;;;;;;;3.07;2.10;;;;;;;;;;5076451;28;20459;-85
2023/10/22 00:36:52;;;;;;;5.97;2.10;;;;;;;;;;5079579;28;20434;-86
2023/10/22 00:39:18;;;;;;;4.77;2.03;;;;;;;;;;5079639;28;20435;-85
2023/10/22 00:41:45;;;;;;;5.93;2.37;;;;;;;;;;5079440;28;20437;-86
2023/10/22 00:44:11;;;;;;;3.47;1.97;;;;;;;;;;5079550;28;20525;-85
2023/10/22 00:46:38;;;;;;;7.13;2.07;;;;;;;;;;5079265;28;20474;-85
2023/10/22 00:49:06;;;;;;;4.80;1.90;;;;;;;;;;5077738;28;20430;-85
2023/10/22 00:51:33;;;;;;;9.50;2.30;;;;;;;;;;5079085;28;20471;-85
2023/10/22 00:54:01;;;;;;;2.90;2.20;;;;;;;;;;5079204;28;20465;-85
2023/10/22 00:56:28;;;;;;;3.23;1.80;;;;;;;;;;5079247;28;20478;-87
2023/10/22 00:58:55;;;;;;;4.03;2.00;;;;;;;;;;5079156;28;20453;-85
2023/10/22 01:01:22;;;;;;;2.93;2.10;;;;;;;;;;5078426;28;20557;-87
2023/10/22 01:03:49;;;;;;;5.67;2.07;;;;;;;;;;5079394;28;20461;-87
2023/10/22 01:06:17;;;;;;;2.63;2.07;;;;;;;;;;5078620;28;20479;-86
2023/10/22 01:08:44;;;;;;;4.80;1.70;;;;;;;;;;5078675;28;20435;-87
2023/10/22 01:11:11;;;;;;;4.93;2.33;;;;;;;;;;5076963;28;20908;-86
2023/10/22 01:13:37;;;;;;;4.30;1.90;;;;;;;;;;5061100;28;20467;-86
2023/10/22 01:16:03;;;;;;;2.80;1.80;;;;;;;;;;5060298;28;20472;-86
2023/10/22 01:18:30;;;;;;;6.73;2.43;;;;;;;;;;5077698;28;20201;-87
2023/10/22 01:20:57;;;;;;;6.13;2.40;;;;;;;;;;5076926;28;20830;-86
2023/10/22 01:23:27;;;;;;;2.60;1.87;;;;;;;;;;5078747;28;20439;-87
2023/10/22 01:25:53;;;;;;;6.47;2.97;;;;;;;;;;5078627;28;20475;-87
2023/10/22 01:28:20;;;;;;;6.03;2.03;;;;;;;;;;5078448;28;20446;-86
2023/10/22 01:30:46;;;;;;;3.80;2.30;;;;;;;;;;5075696;28;20518;-87
2023/10/22 01:33:12;;;;;;;7.70;1.97;;;;;;;;;;5078337;28;20956;-86
2023/10/22 01:35:39;;;;;;;3.10;1.93;;;;;;;;;;5077692;28;20475;-86
2023/10/22 01:38:05;;;;;;;2.80;1.67;;;;;;;;;;5078303;28;20435;-86
2023/10/22 01:40:33;;;;;;;10.60;2.30;;;;;;;;;;5078004;28;20467;-86
2023/10/22 01:43:00;;;;;;;3.30;1.90;;;;;;;;;;5076909;28;20500;-86
2023/10/22 01:45:26;;;;;;;2.93;1.87;;;;;;;;;;5075557;28;20467;-86
2023/10/22 01:47:52;;;;;;;2.80;2.37;;;;;;;;;;5077883;28;20451;-86
2023/10/22 01:50:19;;;;;;;5.70;2.03;;;;;;;;;;5077285;28;20483;-86
2023/10/22 01:52:46;;;;;;;5.73;1.70;;;;;;;;;;5076593;28;20449;-86
2023/10/22 01:55:12;;;;;;;9.10;1.83;;;;;;;;;;5077291;28;20534;-86
2023/10/22 01:57:40;;;;;;;4.10;2.53;;;;;;;;;;5076290;28;20512;-87
2023/10/22 02:00:10;;;;;;;7.50;2.57;;;;;;;;;;5077888;28;20456;-86
2023/10/22 02:02:37;;;;;;;6.87;2.30;;;;;;;;;;5076833;28;20457;-86
2023/10/22 02:05:04;;;;;;;3.00;1.53;;;;;;;;;;5077109;28;20489;-86
2023/10/22 02:07:31;;;;;;;12.30;2.20;;;;;;;;;;5076403;28;20439;-85
2023/10/22 02:09:57;;;;;;;6.87;1.53;;;;;;;;;;5076637;28;20549;-86
2023/10/22 02:12:27;;;;;;;5.50;1.93;;;;;;;;;;5077131;28;20450;-86
2023/10/22 02:14:55;;;;;;;3.03;1.70;;;;;;;;;;5076830;28;20501;-86
2023/10/22 02:17:22;;;;;;;3.67;2.03;;;;;;;;;;5075816;28;20439;-86
2023/10/22 02:19:48;;;;;;;3.07;1.90;;;;;;;;;;5076890;28;20471;-86
2023/10/22 02:22:16;;;;;;;4.60;1.60;;;;;;;;;;5076597;28;20967;-86
2023/10/22 02:24:42;;;;;;;2.27;1.53;;;;;;;;;;5076562;28;20465;-86
2023/10/22 02:27:09;;;;;;;5.80;1.90;;;;;;;;;;5075838;28;20442;-86
2023/10/22 02:29:36;;;;;;;6.27;2.70;;;;;;;;;;5075424;28;20455;-86
2023/10/22 02:32:04;;;;;;;3.13;1.87;;;;;;;;;;5076992;28;20510;-87
2023/10/22 02:34:31;;;;;;;3.37;1.73;;;;;;;;;;5075130;28;20462;-86
2023/10/22 02:36:57;;;;;;;5.03;1.67;;;;;;;;;;5076613;28;20439;-86
2023/10/22 02:39:24;;;;;;;1.60;1.50;;;;;;;;;;5076811;28;20859;-86
2023/10/22 02:41:50;;;;;;;6.10;1.90;;;;;;;;;;5076513;28;20469;-86
2023/10/22 02:44:16;;;;;;;3.13;1.70;;;;;;;;;;5075979;28;20459;-86
2023/10/22 02:46:43;;;;;;;9.33;2.13;;;;;;;;;;5076332;28;20471;-87
2023/10/22 02:49:11;;;;;;;5.23;1.67;;;;;;;;;;5076170;28;20435;-86
2023/10/22 02:51:37;;;;;;;6.53;1.97;;;;;;;;;;5075684;28;20831;-86
2023/10/22 02:54:04;;;;;;;3.20;1.23;;;;;;;;;;5075040;28;20984;-86
2023/10/22 02:56:30;;;;;;;3.23;1.50;;;;;;;;;;5075897;28;20502;-86
2023/10/22 02:58:57;;;;;;;4.73;1.80;;;;;;;;;;5075511;28;20810;-86
2023/10/22 03:01:23;;;;;;;2.00;1.27;;;;;;;;;;5075498;28;20471;-86
2023/10/22 03:03:50;;;;;;;12.33;2.00;;;;;;;;;;5074861;28;20828;-86
2023/10/22 03:06:18;;;;;;;2.97;1.37;;;;;;;;;;5074437;28;20542;-86
2023/10/22 03:08:44;;;;;;;3.50;1.33;;;;;;;;;;5075065;28;20858;-85
2023/10/22 03:11:15;;;;;;;4.03;1.87;;;;;;;;;;5074406;28;21014;-85
2023/10/22 03:13:42;;;;;;;4.50;1.90;;;;;;;;;;5074993;28;20524;-86
2023/10/22 03:16:11;;;;;;;3.00;2.13;;;;;;;;;;5074892;28;20467;-86
2023/10/22 03:18:37;;;;;;;4.43;1.90;;;;;;;;;;5075379;28;20482;-86
2023/10/22 03:21:10;;;;;;;4.00;1.70;;;;;;;;;;5075233;28;20471;-86
2023/10/22 03:23:40;;;;;;;3.60;2.07;;;;;;;;;;5057900;28;20467;-86
2023/10/22 03:26:07;;;;;;;4.27;1.60;;;;;;;;;;5074192;28;20470;-86
2023/10/22 03:28:33;;;;;;;2.50;1.77;;;;;;;;;;5075606;28;20443;-86
2023/10/22 03:31:03;;;;;;;1.63;1.30;;;;;;;;;;5075044;28;20486;-86
2023/10/22 03:33:29;;;;;;;3.03;1.47;;;;;;;;;;5074230;28;20488;-86
2023/10/22 03:35:55;;;;;;;2.80;1.60;;;;;;;;;;5075407;28;20483;-86
2023/10/22 03:38:23;;;;;;;5.47;1.60;;;;;;;;;;5074976;28;20814;-86
2023/10/22 03:40:56;;;;;;;8.07;3.20;;;;;;;;;;5074910;28;20821;-87
2023/10/22 03:43:22;;;;;;;3.50;1.53;;;;;;;;;;5075782;28;20415;-86
2023/10/22 03:45:49;;;;;;;3.20;1.47;;;;;;;;;;5075195;28;20471;-86
2023/10/22 03:48:15;;;;;;;3.10;1.40;;;;;;;;;;5075376;28;20447;-86
2023/10/22 03:50:44;;;;;;;3.23;1.37;;;;;;;;;;5074521;28;20863;-86
2023/10/22 03:53:11;;;;;;;3.37;1.27;;;;;;;;;;5075424;28;20439;-87
2023/10/22 03:55:37;;;;;;;1.60;1.50;;;;;;;;;;5075429;28;20471;-86
2023/10/22 03:58:05;;;;;;;1.97;1.50;;;;;;;;;;5074290;28;20819;-86
2023/10/22 04:00:31;;;;;;;3.20;1.13;;;;;;;;;;5074937;28;20478;-86
2023/10/22 04:02:58;;;;;;;2.40;1.67;;;;;;;;;;5074046;28;20446;-86
2023/10/22 04:05:25;;;;;;;7.90;1.80;;;;;;;;;;5072410;28;20996;-86
2023/10/22 04:07:51;;;;;;;4.43;1.50;;;;;;;;;;5075296;28;20443;-86
2023/10/22 04:10:18;;;;;;;2.00;1.47;;;;;;;;;;5072189;28;20463;-86
2023/10/22 04:12:44;;;;;;;4.30;1.70;;;;;;;;;;5074569;28;21036;-85
2023/10/22 04:15:13;;;;;;;2.73;1.60;;;;;;;;;;5074369;28;20473;-87
2023/10/22 04:17:39;;;;;;;2.37;1.70;;;;;;;;;;5075002;28;20450;-86
2023/10/22 04:20:06;;;;;;;5.30;1.70;;;;;;;;;;5072052;28;21034;-85
2023/10/22 04:22:33;;;;;;;4.97;1.93;;;;;;;;;;5075071;28;20439;-86
2023/10/22 04:25:00;;;;;;;2.90;1.40;;;;;;;;;;5073865;28;20521;-86
2023/10/22 04:27:26;;;;;;;3.70;1.30;;;;;;;;;;5074518;28;20443;-86
2023/10/22 04:29:52;;;;;;;4.87;1.70;;;;;;;;;;5074251;28;20964;-86
2023/10/22 04:32:20;;;;;;;5.13;1.20;;;;;;;;;;5075161;28;20532;-86
2023/10/22 04:34:47;;;;;;;5.43;3.87;;;;;;;;;;5075091;28;20459;-86
2023/10/22 04:37:15;;;;;;;5.23;2.20;;;;;;;;;;5075279;28;20439;-86
2023/10/22 04:39:42;;;;;;;2.97;1.30;;;;;;;;;;5074508;28;20493;-86
2023/10/22 04:42:09;;;;;;;3.63;1.60;;;;;;;;;;5074112;28;20459;-86
2023/10/22 04:44:36;;;;;;;5.33;1.57;;;;;;;;;;5073418;28;20454;-86
2023/10/22 04:47:02;;;;;;;5.00;2.17;;;;;;;;;;5074999;28;20416;-87
2023/10/22 04:49:31;;;;;;;4.67;1.77;;;;;;;;;;5074684;28;20439;-86
2023/10/22 04:51:58;;;;;;;7.23;1.23;;;;;;;;;;5074801;28;20556;-86
2023/10/22 04:54:24;;;;;;;9.30;1.93;;;;;;;;;;5073774;28;20516;-88
2023/10/22 04:56:51;;;;;;;3.47;1.37;;;;;;;;;;5073643;28;20508;-86
2023/10/22 04:59:17;;;;;;;1.90;1.27;;;;;;;;;;5074680;28;20794;-86
2023/10/22 05:01:43;;;;;;;2.30;1.67;;;;;;;;;;5072903;28;20475;-86
2023/10/22 05:04:10;;;;;;;3.23;1.60;;;;;;;;;;5074991;28;20474;-86
2023/10/22 05:06:38;;;;;;;2.63;1.57;;;;;;;;;;5073944;28;20850;-86
2023/10/22 05:09:05;;;;;;;9.03;2.20;;;;;;;;;;5074459;28;20979;-86
2023/10/22 05:11:32;;;;;;;4.57;1.20;;;;;;;;;;5074314;28;20479;-86
2023/10/22 05:13:58;;;;;;;3.50;2.13;;;;;;;;;;5074997;28;20550;-86
2023/10/22 05:16:26;;;;;;;3.50;1.03;;;;;;;;;;5074356;28;20441;-85
2023/10/22 05:18:52;;;;;;;5.03;1.33;;;;;;;;;;5074728;28;20439;-86
2023/10/22 05:21:18;;;;;;;2.97;1.40;;;;;;;;;;5076816;28;20478;-86
2023/10/22 05:23:46;;;;;;;4.47;1.40;;;;;;;;;;5078176;28;20459;-86
2023/10/22 05:26:13;;;;;;;2.97;1.50;;;;;;;;;;5078015;28;20475;-87
2023/10/22 05:28:39;;;;;;;5.13;1.37;;;;;;;;;;5077387;28;20819;-86
2023/10/22 05:31:12;;;;;;;2.70;1.90;;;;;;;;;;5077325;28;20474;-86
2023/10/22 05:33:39;;;;;;;5.93;1.70;;;;;;;;;;5077815;28;20465;-87
2023/10/22 05:36:05;;;;;;;2.90;1.37;;;;;;;;;;5076731;28;20478;-86
2023/10/22 05:38:32;;;;;;;2.63;1.43;;;;;;;;;;5078033;28;20435;-86
2023/10/22 05:41:00;;;;;;;2.50;1.57;;;;;;;;;;5077507;28;20971;-86
2023/10/22 05:43:27;;;;;;;3.03;1.43;;;;;;;;;;5077785;28;20445;-86
2023/10/22 05:45:56;;;;;;;2.63;1.50;;;;;;;;;;5077456;28;20479;-87
2023/10/22 05:48:23;;;;;;;3.90;1.90;;;;;;;;;;5077517;28;20454;-86
2023/10/22 05:50:50;;;;;;;2.93;1.53;;;;;;;;;;5077416;28;20471;-87
2023/10/22 05:53:17;;;;;;;2.90;1.60;;;;;;;;;;5077533;28;20475;-87
2023/10/22 05:55:43;;;;;;;6.13;1.93;;;;;;;;;;5077054;28;20473;-86
2023/10/22 05:58:11;;;;;;;1.53;1.20;;;;;;;;;;5077256;28;20421;-87
2023/10/22 06:00:38;;;;;;;4.37;1.50;;;;;;;;;;5076980;28;20445;-86
2023/10/22 06:03:04;;;;;;;4.93;1.67;;;;;;;;;;5077692;28;20479;-86
2023/10/22 06:05:31;;;;;;;5.03;1.90;;;;;;;;;;5058980;28;20477;-86
2023/10/22 06:07:57;;;;;;;5.30;1.87;;;;;;;;;;5078208;28;20447;-86
2023/10/22 06:10:27;;;;;;;4.40;1.50;;;;;;;;;;5077490;28;20449;-86
2023/10/22 06:12:53;;;;;;;4.67;1.90;;;;;;;;;;5076260;28;20474;-86
2023/10/22 06:15:21;;;;;;;6.30;1.83;;;;;;;;;;5077445;28;20471;-85
2023/10/22 06:17:48;;;;;;;2.60;1.50;;;;;;;;;;5077176;28;20422;-87
2023/10/22 06:20:14;;;;;;;3.77;1.40;;;;;;;;;;5073603;28;20474;-86
2023/10/22 06:22:41;;;;;;;1.80;1.00;;;;;;;;;;5076351;28;20439;-86
2023/10/22 06:25:08;;;;;;;5.07;1.30;;;;;;;;;;5076829;28;20477;-86
2023/10/22 06:27:34;;;;;;;7.00;1.57;;;;;;;;;;5075388;28;20944;-86
2023/10/22 06:30:01;;;;;;;5.70;2.00;;;;;;;;;;5075097;28;20474;-86
2023/10/22 06:32:30;;;;;;;6.00;1.80;;;;;;;;;;5077224;28;20984;-86
2023/10/22 06:34:56;;;;;;;1.97;1.40;;;;;;;;;;5076029;28;20509;-86
2023/10/22 06:37:23;;;;;;;6.40;1.27;;;;;;;;;;5075590;28;20443;-87
2023/10/22 06:39:51;;;;;;;1.43;1.30;;;;;;;;;;5058776;28;20517;-86
2023/10/22 06:42:17;;;;;;;4.37;1.53;;;;;;;;;;5077340;28;20410;-86
2023/10/22 06:44:44;;;;;;;3.37;1.20;;;;;;;;;;5075976;28;20467;-87
2023/10/22 06:47:10;;;;;;;1.77;1.10;;;;;;;;;;5075851;28;20458;-86
2023/10/22 06:49:38;;;;;;;2.80;1.40;;;;;;;;;;5075458;28;20467;-86
2023/10/22 06:52:05;;;;;;;3.37;1.00;;;;;;;;;;5076050;28;20550;-85
2023/10/22 06:54:31;;;;;;;3.53;1.40;;;;;;;;;;5074687;28;20470;-84
2023/10/22 06:56:57;;;;;;;1.83;1.53;;;;;;;;;;5075557;28;20447;-85
2023/10/22 06:59:24;;;;;;;2.80;1.20;;;;;;;;;;5073977;28;20445;-83
2023/10/22 07:01:50;;;;;;;2.20;1.60;;;;;;;;;;5074685;28;20435;-83
2023/10/22 07:04:17;;;;;;;4.60;1.70;;;;;;;;;;5075595;28;20438;-82
2023/10/22 07:06:45;;;;;;;3.80;1.63;;;;;;;;;;5075936;28;20410;-83
2023/10/22 07:09:12;;;;;;;5.73;2.60;;;;;;;;;;5074925;28;20446;-82
2023/10/22 07:11:39;;;;;;;5.00;1.70;;;;;;;;;;5073757;28;20458;-83
2023/10/22 07:14:05;;;;;;;3.67;1.40;;;;;;;;;;5074991;28;20984;-83
2023/10/22 07:16:32;;;;;;;5.60;2.03;;;;;;;;;;5075910;28;20443;-85
2023/10/22 07:18:59;;;;;;;4.17;1.57;;;;;;;;;;5074917;28;20437;-83
2023/10/22 07:21:25;;;;;;;5.17;1.70;;;;;;;;;;5075763;28;20435;-84
2023/10/22 07:23:53;;;;;;;3.03;1.63;;;;;;;;;;5073154;28;20459;-82
2023/10/22 07:26:19;;;;;;;4.40;2.33;;;;;;;;;;5073839;28;20949;-82
2023/10/22 07:28:46;;;;;;;2.87;1.50;;;;;;;;;;5075474;28;20441;-84
2023/10/22 07:31:17;;;;;;;3.80;2.00;;;;;;;;;;5075936;28;20920;-84
2023/10/22 07:33:43;;;;;;;3.93;1.70;;;;;;;;;;5075784;28;20489;-83
2023/10/22 07:36:10;;;;;;;2.00;1.47;;;;;;;;;;5075690;28;20435;-85
2023/10/22 07:38:40;;;;;;;6.40;2.60;;;;;;;;;;5074474;28;20454;-81
2023/10/22 07:41:13;;;;;;;4.43;1.83;;;;;;;;;;5075839;28;20529;-84
2023/10/22 07:43:40;;;;;;;2.50;2.00;;;;;;;;;;5074006;28;20438;-85
2023/10/22 07:46:07;;;;;;;6.17;2.47;;;;;;;;;;5073633;28;20417;-82
2023/10/22 07:48:33;;;;;;;6.10;2.47;;;;;;;;;;5073803;28;20447;-82
2023/10/22 07:51:08;;;;;;;7.27;3.27;;;;;;;;;;5075054;28;20794;-82
2023/10/22 07:53:34;;;;;;;3.10;2.90;;;;;;;;;;5074681;28;20856;-83
2023/10/22 07:56:00;;;;;;;10.47;3.30;;;;;;;;;;5074914;28;20466;-82
2023/10/22 07:58:28;;;;;;;4.67;3.27;;;;;;;;;;5076457;28;20462;-82
2023/10/22 08:00:55;;;;;;;4.10;3.70;;;;;;;;;;5073753;28;20510;-83
2023/10/22 08:03:21;;;;;;;5.00;3.20;;;;;;;;;;5073815;28;20439;-82
2023/10/22 08:05:48;;;;;;;4.17;3.60;;;;;;;;;;5075193;28;20545;-82
2023/10/22 08:08:13;;;;;;;4.60;3.70;;;;;;;;;;5076850;28;20512;-83
2023/10/22 08:10:39;;;;;;;6.30;4.10;;;;;;;;;;5075274;28;20491;-82
2023/10/22 08:13:06;;;;;;;4.80;4.40;;;;;;;;;;5073965;28;20221;-82
2023/10/22 08:15:34;;;;;;;8.50;3.90;;;;;;;;;;5074593;28;20441;-81
2023/10/22 08:18:00;;;;;;;4.77;4.37;;;;;;;;;;5075277;28;20435;-81
2023/10/22 08:20:27;;;;;;;3.90;3.60;;;;;;;;;;5074898;28;20533;-83
2023/10/22 08:22:53;;;;;;;4.57;3.30;;;;;;;;;;5075884;28;20443;-86
2023/10/22 08:25:19;;;;;;;3.77;3.33;;;;;;;;;;5073606;28;20524;-82
2023/10/22 08:27:46;;;;;;;3.40;3.20;;;;;;;;;;5075285;28;20801;-84
2023/10/22 08:30:13;;;;;;;3.07;2.87;;;;;;;;;;5073418;28;20441;-81
2023/10/22 08:32:46;;;;;;;2.97;2.77;;;;;;;;;;5073302;28;20833;-82
2023/10/22 08:35:12;;;;;;;3.87;3.50;;;;;;;;;;5074240;28;20477;-82
2023/10/22 08:37:39;;;;;;;3.23;2.93;;;;;;;;;;5075181;28;20443;-82
2023/10/22 08:40:08;;;;;;;2.23;2.00;;;;;;;;;;5073431;28;20455;-83
2023/10/22 08:42:35;;;;;;;3.33;2.13;;;;;;;;;;5073089;28;20409;-82
2023/10/22 08:45:02;;;;;;;3.20;2.90;;;;;;;;;;5073700;28;20846;-81
2023/10/22 08:47:29;;;;;;;2.90;2.60;;;;;;;;;;5072096;28;20448;-81
2023/10/22 08:49:57;;;;;;;3.27;3.03;;;;;;;;;;5073921;28;20984;-81
2023/10/22 08:52:23;;;;;;;4.70;4.20;;;;;;;;;;5074383;28;20819;-82
2023/10/22 08:54:51;;;;;;;4.77;3.10;;;;;;;;;;5073796;28;20908;-81
2023/10/22 08:57:20;;;;;;;6.17;4.73;;;;;;;;;;5077647;28;20512;-83
2023/10/22 08:59:47;;;;;;;22.60;14.97;;;;;;;;;;5077731;28;20467;-83
2023/10/22 09:02:15;;;;;;;9.37;7.07;;;;;;;;;;5078333;28;20418;-81
2023/10/22 09:04:41;;;;;;;4.90;4.50;;;;;;;;;;5076991;28;20453;-81
2023/10/22 09:07:09;;;;;;;4.07;3.10;;;;;;;;;;5077631;28;20517;-81
2023/10/22 09:09:36;;;;;;;3.93;3.53;;;;;;;;;;5077198;28;20467;-82
2023/10/22 09:12:06;;;;;;;3.97;3.60;;;;;;;;;;5076871;28;20420;-82
2023/10/22 09:14:32;;;;;;;8.17;3.00;;;;;;;;;;5075989;28;20458;-82
2023/10/22 09:16:59;;;;;;;3.60;3.30;;;;;;;;;;5076483;28;20451;-81
2023/10/22 09:19:36;;;;;;;6.40;3.87;;;;;;;;;;5076186;28;20437;-82
2023/10/22 09:22:03;;;;;;;5.13;3.43;;;;;;;;;;5077725;28;20417;-82
2023/10/22 09:24:32;;;;;;;6.30;4.77;;;;;;;;;;5076875;28;20441;-81
2023/10/22 09:26:59;;;;;;;4.80;4.40;;;;;;;;;;5077227;28;20424;-82
2023/10/22 09:29:26;;;;;;;6.20;3.90;;;;;;;;;;5075362;28;20502;-82
2023/10/22 09:31:53;;;;;;;5.73;4.40;;;;;;;;;;5077309;28;20453;-83
2023/10/22 09:34:26;;;;;;;11.63;5.50;;;;;;;;;;5077028;28;20449;-81
2023/10/22 09:36:53;;;;;;;3.80;3.50;;;;;;;;;;5075522;28;20471;-82
2023/10/22 09:39:34;;;;;;;7.33;4.13;;;;;;;;;;5076581;28;20470;-81
2023/10/22 09:42:00;;;;;;;6.97;4.30;;;;;;;;;;5075430;28;20489;-82
2023/10/22 09:44:26;;;;;;;8.00;5.23;;;;;;;;;;5076183;28;20457;-81
2023/10/22 09:46:54;;;;;;;11.90;6.00;;;;;;;;;;5077128;28;20467;-82
2023/10/22 09:49:21;;;;;;;8.43;5.10;;;;;;;;;;5075394;28;20484;-81
2023/10/22 09:51:48;;;;;;;11.47;6.70;;;;;;;;;;5076817;28;20446;-81
2023/10/22 09:54:17;;;;;;;8.10;5.60;;;;;;;;;;5076323;28;20434;-81
2023/10/22 09:56:48;;;;;;;5.73;5.13;;;;;;;;;;5076318;28;20410;-81
2023/10/22 09:59:16;;;;;;;14.90;12.77;;;;;;;;;;5076275;28;20815;-82
2023/10/22 10:01:43;;;;;;;10.80;7.83;;;;;;;;;;5076692;28;20457;-82
2023/10/22 10:04:10;;;;;;;4.97;4.20;;;;;;;;;;5076046;28;20450;-82
2023/10/22 10:06:36;;;;;;;8.20;5.23;;;;;;;;;;5075701;28;20786;-81
2023/10/22 10:09:04;;;;;;;6.37;4.40;;;;;;;;;;5074157;28;20453;-82
2023/10/22 10:11:31;;;;;;;11.20;8.37;;;;;;;;;;5076239;28;20413;-83
2023/10/22 10:13:59;;;;;;;10.63;4.17;;;;;;;;;;5075803;28;20923;-82
2023/10/22 10:16:25;;;;;;;6.70;5.70;;;;;;;;;;5076377;28;20500;-81
2023/10/22 10:19:04;;;;;;;8.17;7.37;;;;;;;;;;5074925;28;20411;-82
2023/10/22 10:21:47;;;;;;;8.40;4.87;;;;;;;;;;5076923;28;20420;-82
2023/10/22 10:24:23;;;;;;;4.63;3.80;;;;;;;;;;5075680;28;20475;-83
2023/10/22 10:26:51;;;;;;;13.30;7.50;;;;;;;;;;5076142;28;20413;-81
2023/10/22 10:29:20;;;;;;;5.47;3.93;;;;;;;;;;5074145;28;20838;-82
2023/10/22 10:31:48;;;;;;;9.00;5.83;;;;;;;;;;5075939;28;20410;-82
2023/10/22 10:34:21;;;;;;;7.60;5.47;;;;;;;;;;5075095;28;20497;-82
2023/10/22 10:36:48;;;;;;;5.97;4.87;;;;;;;;;;5075599;28;20439;-82
2023/10/22 10:39:36;;;;;;;6.53;5.80;;;;;;;;;;5075620;28;20470;-82
2023/10/22 10:42:02;;;;;;;6.47;5.17;;;;;;;;;;5074743;28;20831;-82
2023/10/22 10:44:31;;;;;;;6.60;4.40;;;;;;;;;;5075049;28;20467;-83
2023/10/22 10:47:12;;;;;;;4.40;3.40;;;;;;;;;;5075673;28;20446;-81
2023/10/22 10:49:54;;;;;;;6.23;4.17;;;;;;;;;;5073181;28;20540;-83
2023/10/22 10:52:21;;;;;;;5.07;4.50;;;;;;;;;;5075661;28;20808;-84
2023/10/22 10:54:58;;;;;;;8.80;4.70;;;;;;;;;;5074542;28;20963;-83
2023/10/22 10:57:33;;;;;;;6.20;4.40;;;;;;;;;;5075689;28;20492;-84
2023/10/22 11:00:01;;;;;;;4.30;3.57;;;;;;;;;;5075583;28;20470;-83
2023/10/22 11:02:27;;;;;;;5.97;3.90;;;;;;;;;;5075498;28;20410;-82
2023/10/22 11:04:54;;;;;;;5.93;3.43;;;;;;;;;;5075431;28;20528;-82
2023/10/22 11:07:21;;;;;;;5.97;3.87;;;;;;;;;;5076091;28;20438;-82
2023/10/22 11:09:47;;;;;;;4.80;3.67;;;;;;;;;;5073793;28;20813;-82
2023/10/22 11:12:14;;;;;;;8.77;3.10;;;;;;;;;;5075524;28;20956;-82
2023/10/22 11:14:40;;;;;;;4.03;3.13;;;;;;;;;;5075988;28;20471;-82
2023/10/22 11:17:08;;;;;;;3.97;3.27;;;;;;;;;;5077097;28;20409;-82
2023/10/22 11:19:37;;;;;;;3.67;2.63;;;;;;;;;;5075748;28;20501;-82
2023/10/22 11:22:04;;;;;;;5.23;3.10;;;;;;;;;;5075610;28;20418;-84
2023/10/22 11:24:31;;;;;;;5.80;2.77;;;;;;;;;;5075115;28;20537;-83
2023/10/22 11:26:58;;;;;;;5.37;2.60;;;;;;;;;;5074086;28;20470;-83
2023/10/22 11:29:24;;;;;;;2.87;1.90;;;;;;;;;;5074889;28;20475;-84
2023/10/22 11:31:52;;;;;;;7.00;2.70;;;;;;;;;;5074859;28;20432;-81
2023/10/22 11:34:20;;;;;;;3.40;1.77;;;;;;;;;;5074668;28;20438;-81
2023/10/22 11:36:46;;;;;;;4.70;3.17;;;;;;;;;;5074607;28;20409;-82
2023/10/22 11:39:17;;;;;;;6.83;2.23;;;;;;;;;;5073247;28;20452;-82
2023/10/22 11:41:44;;;;;;;6.50;1.93;;;;;;;;;;5074675;28;20438;-83
2023/10/22 11:44:10;;;;;;;1.70;1.60;;;;;;;;;;5074843;28;20667;-83
2023/10/22 11:46:40;;;;;;;3.30;1.70;;;;;;;;;;5075081;28;20438;-83
2023/10/22 11:49:06;;;;;;;1.83;1.50;;;;;;;;;;5074385;28;20882;-84
2023/10/22 11:51:43;;;;;;;5.37;1.80;;;;;;;;;;5073654;28;20446;-84
2023/10/22 11:54:09;;;;;;;2.67;2.13;;;;;;;;;;5073927;28;20449;-84
2023/10/22 11:56:36;;;;;;;1.37;1.27;;;;;;;;;;5073393;28;20417;-83
2023/10/22 11:59:04;;;;;;;3.50;1.70;;;;;;;;;;5073608;28;20814;-85
2023/10/22 12:01:31;;;;;;;3.67;2.20;;;;;;;;;;5075365;28;20414;-83
2023/10/22 12:03:58;;;;;;;5.50;2.53;;;;;;;;;;5074200;28;20438;-82
2023/10/22 12:06:24;;;;;;;2.77;1.50;;;;;;;;;;5074814;28;20446;-83
2023/10/22 12:08:52;;;;;;;6.60;2.80;;;;;;;;;;5072740;28;20443;-82
2023/10/22 12:11:18;;;;;;;3.90;2.10;;;;;;;;;;5072401;28;20443;-83
2023/10/22 12:13:45;;;;;;;2.40;1.53;;;;;;;;;;5073917;28;20486;-84
2023/10/22 12:16:11;;;;;;;10.17;4.70;;;;;;;;;;5074037;28;20426;-83
2023/10/22 12:18:38;;;;;;;9.30;2.70;;;;;;;;;;5073736;28;20439;-83
2023/10/22 12:21:04;;;;;;;4.30;2.10;;;;;;;;;;5073925;28;20434;-83
2023/10/22 12:23:30;;;;;;;6.83;5.40;;;;;;;;;;5073758;28;20459;-83
2023/10/22 12:25:58;;;;;;;1.80;1.60;;;;;;;;;;5073852;28;20456;-84
2023/10/22 12:28:26;;;;;;;3.97;2.53;;;;;;;;;;5073808;28;20443;-82
2023/10/22 12:30:52;;;;;;;7.43;4.33;;;;;;;;;;5074061;28;20967;-82
2023/10/22 12:33:18;;;;;;;11.57;7.33;;;;;;;;;;5078298;28;20409;-82
2023/10/22 12:35:45;;;;;;;4.93;3.43;;;;;;;;;;5077297;28;20847;-82
2023/10/22 12:38:11;;;;;;;14.30;3.87;;;;;;;;;;5077571;28;20424;-82
2023/10/22 12:40:37;;;;;;;9.53;4.03;;;;;;;;;;5077567;28;20471;-82
2023/10/22 12:43:06;;;;;;;2.10;2.00;;;;;;;;;;5077978;28;20437;-82
2023/10/22 12:45:32;;;;;;;2.47;1.53;;;;;;;;;;5075404;28;20512;-82
2023/10/22 12:47:58;;;;;;;8.90;2.90;;;;;;;;;;5077636;28;20453;-83
2023/10/22 12:50:25;;;;;;;4.93;2.53;;;;;;;;;;5077484;28;21003;-83
2023/10/22 12:52:51;;;;;;;3.60;2.40;;;;;;;;;;5076016;28;20417;-82
2023/10/22 12:55:18;;;;;;;3.80;2.77;;;;;;;;;;5075776;28;20884;-83
2023/10/22 12:57:44;;;;;;;3.10;2.30;;;;;;;;;;5077258;28;20435;-82
2023/10/22 13:00:15;;;;;;;3.50;2.50;;;;;;;;;;5076403;28;20856;-84
2023/10/22 13:02:42;;;;;;;5.57;2.10;;;;;;;;;;5078700;28;20769;-84
2023/10/22 13:05:09;;;;;;;5.50;3.20;;;;;;;;;;5077081;28;20449;-83
2023/10/22 13:07:36;;;;;;;4.53;2.67;;;;;;;;;;5077451;28;20409;-82
2023/10/22 13:10:03;;;;;;;3.27;2.97;;;;;;;;;;5077223;28;20442;-81
2023/10/22 13:12:29;;;;;;;10.87;9.37;;;;;;;;;;5077176;28;20819;-82
2023/10/22 13:14:55;;;;;;;20.33;13.10;;;;;;;;;;5076588;28;20464;-83
2023/10/22 13:17:23;;;;;;;5.87;5.17;;;;;;;;;;5076708;28;20405;-83
2023/10/22 13:19:50;;;;;;;13.30;10.50;;;;;;;;;;5076530;28;20459;-83
2023/10/22 13:22:17;;;;;;;27.23;21.53;;;;;;;;;;5075966;28;20417;-83
2023/10/22 13:24:43;;;;;;;10.60;6.67;;;;;;;;;;5075202;28;20453;-83
2023/10/22 13:27:10;;;;;;;13.30;11.43;;;;;;;;;;5077097;28;20417;-84
2023/10/22 13:29:37;;;;;;;6.30;4.60;;;;;;;;;;5075226;28;20495;-84
2023/10/22 13:32:03;;;;;;;8.97;7.73;;;;;;;;;;5076696;28;20770;-83
2023/10/22 13:34:31;;;;;;;6.20;4.30;;;;;;;;;;5076037;28;20997;-84
2023/10/22 13:36:58;;;;;;;4.20;3.80;;;;;;;;;;5076844;28;20431;-83
2023/10/22 13:39:24;;;;;;;7.30;6.57;;;;;;;;;;5076196;28;20451;-83
2023/10/22 13:41:50;;;;;;;7.03;5.10;;;;;;;;;;5076921;28;20442;-83
2023/10/22 13:44:17;;;;;;;7.23;6.17;;;;;;;;;;5075519;28;20463;-82
2023/10/22 13:46:43;;;;;;;7.47;3.90;;;;;;;;;;5076051;28;20417;-83
2023/10/22 13:49:10;;;;;;;5.43;4.90;;;;;;;;;;5075911;28;20475;-83
2023/10/22 13:51:38;;;;;;;7.93;6.33;;;;;;;;;;5076465;28;20826;-84
2023/10/22 13:54:05;;;;;;;8.63;6.10;;;;;;;;;;5074769;28;20870;-85
2023/10/22 13:56:31;;;;;;;9.57;6.90;;;;;;;;;;5076142;28;20420;-84
2023/10/22 13:58:58;;;;;;;8.90;5.50;;;;;;;;;;5074529;28;20448;-84
2023/10/22 14:01:24;;;;;;;6.00;4.40;;;;;;;;;;5075904;28;20435;-83
2023/10/22 14:03:51;;;;;;;8.13;4.93;;;;;;;;;;5075925;28;20463;-82
2023/10/22 14:06:17;;;;;;;5.43;4.30;;;;;;;;;;5075109;28;20496;-83
2023/10/22 14:08:45;;;;;;;7.17;5.80;;;;;;;;;;5075998;28;20421;-82
2023/10/22 14:11:14;;;;;;;7.80;5.37;;;;;;;;;;5076524;28;20520;-83
2023/10/22 14:13:40;;;;;;;7.83;5.80;;;;;;;;;;5076293;28;20871;-83
2023/10/22 14:16:07;;;;;;;5.10;4.43;;;;;;;;;;5076197;28;20931;-83
2023/10/22 14:18:33;;;;;;;5.90;4.30;;;;;;;;;;5076103;28;20443;-83
2023/10/22 14:21:07;;;;;;;4.77;3.40;;;;;;;;;;5075993;28;20434;-84
2023/10/22 14:23:33;;;;;;;7.33;4.50;;;;;;;;;;5075465;28;20466;-83
2023/10/22 14:26:02;;;;;;;9.57;5.63;;;;;;;;;;5074215;28;20455;-83
2023/10/22 14:28:28;;;;;;;10.93;6.67;;;;;;;;;;5074855;28;20418;-83
2023/10/22 14:30:55;;;;;;;7.50;3.90;;;;;;;;;;5075578;28;20449;-83
2023/10/22 14:33:21;;;;;;;8.93;4.80;;;;;;;;;;5075708;28;20443;-83
2023/10/22 14:35:48;;;;;;;4.93;4.47;;;;;;;;;;5074778;28;21001;-83
2023/10/22 14:38:14;;;;;;;7.17;6.47;;;;;;;;;;5075072;28;20435;-83
2023/10/22 14:40:41;;;;;;;8.70;4.90;;;;;;;;;;5074993;28;20471;-83
2023/10/22 14:43:09;;;;;;;8.83;6.33;;;;;;;;;;5075665;28;20435;-84